Time;durP1;ratioP1;P1;durP2;ratioP2;P2;SDS_P1;SDS_P2;PMS_P1;PMS_P2;Temp;Humidity;BMP_temperature;BMP_pressure;BME280_temperature;BME280_humidity;BME280_pressure;Samples;Min_cycle;Max_cycle;Signal;HPM_P1;HPM_P2
2020/12/29 00:01:55;;;;;;;;;;;4.30;99.90;;;;;;5136265;27;19987;-87
2020/12/29 00:04:38;;;;;;;;;;;4.30;99.90;;;;;;5129927;27;20291;-87
2020/12/29 00:07:09;;;;;;;;;;;4.40;99.90;;;;;;5133389;27;20015;-87
2020/12/29 00:09:40;;;;;;;;;;;4.30;99.90;;;;;;5139219;27;19956;-87
2020/12/29 00:12:11;;;;;;;;;;;4.30;99.90;;;;;;5139337;27;19952;-87
2020/12/29 00:14:40;;;;;;;;;;;4.30;99.90;;;;;;5139303;27;19911;-87
2020/12/29 00:17:10;;;;;;;;;;;4.30;99.90;;;;;;5139095;27;20381;-87
2020/12/29 00:19:44;;;;;;;;;;;4.30;99.90;;;;;;5133551;27;19907;-87
2020/12/29 00:22:15;;;;;;;;;;;4.30;99.90;;;;;;5137205;27;19911;-87
2020/12/29 00:24:44;;;;;;;;;;;4.30;99.90;;;;;;5157354;27;19907;-87
2020/12/29 00:27:13;;;;;;;;;;;4.30;99.90;;;;;;5132196;27;19915;-88
2020/12/29 00:29:44;;;;;;;;;;;4.20;99.90;;;;;;5132434;27;19907;-87
2020/12/29 00:32:16;;;;;;;;;;;4.20;99.90;;;;;;5139182;27;19907;-87
2020/12/29 00:34:47;;;;;;;;;;;4.20;99.90;;;;;;5138627;27;19907;-87
2020/12/29 00:37:26;;;;;;;;;;;4.20;99.90;;;;;;5157043;27;19921;-87
2020/12/29 00:40:18;;;;;;;;;;;4.20;99.90;;;;;;5157305;27;19908;-87
2020/12/29 00:42:49;;;;;;;;;;;4.20;99.90;;;;;;5156768;27;19914;-87
2020/12/29 00:45:21;;;;;;;;;;;4.10;99.90;;;;;;5138042;27;19959;-88
2020/12/29 00:47:53;;;;;;;;;;;4.10;99.90;;;;;;5138322;27;19911;-87
2020/12/29 00:50:22;;;;;;;;;;;4.10;99.90;;;;;;5138517;27;19914;-86
2020/12/29 00:52:53;;;;;;;;;;;4.10;99.90;;;;;;5134463;27;19911;-87
2020/12/29 00:55:22;;;;;;;;;;;4.10;99.90;;;;;;5137325;27;19907;-87
2020/12/29 00:57:55;;;;;;;;;;;4.10;99.90;;;;;;5131111;27;19950;-87
2020/12/29 01:00:26;;;;;;;;;;;4.10;99.90;;;;;;5138439;27;19962;-87
2020/12/29 01:02:55;;;;;;;;;;;4.10;99.90;;;;;;5133982;27;19952;-87
2020/12/29 01:05:26;;;;;;;;;;;4.10;99.90;;;;;;5129698;27;19919;-87
2020/12/29 01:07:57;;;;;;;;;;;4.10;99.90;;;;;;5135658;27;19915;-87
2020/12/29 01:10:26;;;;;;;;;;;4.10;99.90;;;;;;5134074;27;19914;-87
2020/12/29 01:12:56;;;;;;;;;;;4.10;99.90;;;;;;5134205;27;19908;-87
2020/12/29 01:15:28;;;;;;;;;;;4.10;99.90;;;;;;5135080;27;20311;-87
2020/12/29 01:18:11;;;;;;;;;;;4.20;99.90;;;;;;5134738;27;19931;-87
2020/12/29 01:20:43;;;;;;;;;;;4.10;99.90;;;;;;5134883;27;20256;-87
2020/12/29 01:23:17;;;;;;;;;;;4.10;99.90;;;;;;5135825;27;19915;-87
2020/12/29 01:25:48;;;;;;;;;;;4.20;99.90;;;;;;5135966;27;19915;-87
2020/12/29 01:28:25;;;;;;;;;;;4.20;99.90;;;;;;5135770;27;19915;-87
2020/12/29 01:31:18;;;;;;;;;;;4.20;99.90;;;;;;5134709;27;19944;-87
2020/12/29 01:33:49;;;;;;;;;;;4.20;99.90;;;;;;5136145;27;19907;-87
2020/12/29 01:36:15;;;;;;;;;;;4.20;99.90;;;;;;5136136;27;19911;-86
2020/12/29 01:38:44;;;;;;;;;;;4.20;99.90;;;;;;5134468;27;20390;-87
2020/12/29 01:41:18;;;;;;;;;;;4.20;99.90;;;;;;5134174;27;20006;-87
2020/12/29 01:43:50;;;;;;;;;;;4.20;99.90;;;;;;5129733;27;19914;-87
2020/12/29 01:46:16;;;;;;;;;;;4.10;99.90;;;;;;5134036;27;19915;-86
2020/12/29 01:48:42;;;;;;;;;;;4.10;99.90;;;;;;5134329;27;19907;-87
2020/12/29 01:51:19;;;;;;;;;;;4.10;99.90;;;;;;5127475;27;19917;-88
2020/12/29 01:53:49;;;;;;;;;;;4.10;99.90;;;;;;5134211;27;20365;-86
2020/12/29 01:56:21;;;;;;;;;;;4.00;99.90;;;;;;5133599;27;19908;-86
2020/12/29 01:59:00;;;;;;;;;;;4.00;99.90;;;;;;5133583;27;20002;-86
2020/12/29 02:01:33;;;;;;;;;;;4.00;99.90;;;;;;5134063;27;19908;-86
2020/12/29 02:04:05;;;;;;;;;;;4.00;99.90;;;;;;5138194;27;19919;-86
2020/12/29 02:06:58;;;;;;;;;;;4.00;99.90;;;;;;5136651;27;19915;-86
2020/12/29 02:09:31;;;;;;;;;;;4.10;99.90;;;;;;5131626;27;19914;-87
2020/12/29 02:12:16;;;;;;;;;;;4.00;99.90;;;;;;5136865;27;19907;-87
2020/12/29 02:14:46;;;;;;;;;;;4.00;99.90;;;;;;5136492;27;19907;-86
2020/12/29 02:17:15;;;;;;;;;;;4.00;99.90;;;;;;5134250;27;19936;-86
2020/12/29 02:19:43;;;;;;;;;;;4.00;99.90;;;;;;5137253;27;19907;-86
2020/12/29 02:22:12;;;;;;;;;;;4.00;99.90;;;;;;5137779;27;20043;-86
2020/12/29 02:24:47;;;;;;;;;;;4.00;99.90;;;;;;5141719;27;19918;-86
2020/12/29 02:27:31;;;;;;;;;;;;;;;;;;;;;
2020/12/29 02:30:09;;;;;;;;;;;4.00;99.90;;;;;;5160668;27;19911;-86
2020/12/29 02:32:44;;;;;;;;;;;3.90;99.90;;;;;;5141784;27;19952;-86
2020/12/29 02:35:11;;;;;;;;;;;3.90;99.90;;;;;;5141793;27;19907;-86
2020/12/29 02:37:42;;;;;;;;;;;3.90;99.90;;;;;;5138343;27;19912;-86
2020/12/29 02:40:24;;;;;;;;;;;3.90;99.90;;;;;;5140940;27;19915;-86
2020/12/29 02:42:56;;;;;;;;;;;4.00;99.90;;;;;;5141503;27;19914;-86
2020/12/29 02:45:27;;;;;;;;;;;4.00;99.90;;;;;;5141490;27;19915;-86
2020/12/29 02:48:01;;;;;;;;;;;3.90;99.90;;;;;;5141470;27;19914;-87
2020/12/29 02:50:44;;;;;;;;;;;4.00;99.90;;;;;;5140910;27;20368;-86
2020/12/29 02:53:23;;;;;;;;;;;4.00;99.90;;;;;;5160244;27;20325;-86
2020/12/29 02:55:54;;;;;;;;;;;3.90;99.90;;;;;;5141522;27;20013;-86
2020/12/29 02:58:36;;;;;;;;;;;4.00;99.90;;;;;;5135685;27;19911;-87
2020/12/29 03:01:06;;;;;;;;;;;4.00;99.90;;;;;;5140394;27;19911;-86
2020/12/29 03:03:32;;;;;;;;;;;4.00;99.90;;;;;;5137720;27;19918;-87
2020/12/29 03:06:00;;;;;;;;;;;4.00;99.90;;;;;;5141273;27;19923;-86
2020/12/29 03:08:38;;;;;;;;;;;4.00;99.90;;;;;;5137317;27;19911;-86
2020/12/29 03:11:06;;;;;;;;;;;4.00;99.90;;;;;;5135886;27;19930;-86
2020/12/29 03:13:41;;;;;;;;;;;4.00;99.90;;;;;;5155303;27;19922;-86
2020/12/29 03:16:15;;;;;;;;;;;4.00;99.90;;;;;;5140883;27;19964;-87
2020/12/29 03:18:47;;;;;;;;;;;4.00;99.90;;;;;;5140974;27;20394;-88
2020/12/29 03:21:17;;;;;;;;;;;4.00;99.90;;;;;;5140841;27;19943;-87
2020/12/29 03:23:51;;;;;;;;;;;4.10;99.90;;;;;;5140205;27;19907;-87
2020/12/29 03:26:25;;;;;;;;;;;4.00;99.90;;;;;;5140694;27;19915;-87
2020/12/29 03:28:54;;;;;;;;;;;4.10;99.90;;;;;;5140520;27;20320;-87
2020/12/29 03:31:30;;;;;;;;;;;4.10;99.90;;;;;;5140628;27;20338;-87
2020/12/29 03:34:00;;;;;;;;;;;4.10;99.90;;;;;;5139024;27;19949;-87
2020/12/29 03:36:31;;;;;;;;;;;4.10;99.90;;;;;;5140069;27;19994;-87
2020/12/29 03:39:03;;;;;;;;;;;4.00;99.90;;;;;;5140172;27;19911;-87
2020/12/29 03:41:34;;;;;;;;;;;4.00;99.90;;;;;;5140232;27;19912;-87
2020/12/29 03:44:05;;;;;;;;;;;4.00;99.90;;;;;;5136580;27;19949;-87
2020/12/29 03:46:37;;;;;;;;;;;4.00;99.90;;;;;;5158344;27;20381;-88
2020/12/29 03:49:05;;;;;;;;;;;4.00;99.90;;;;;;5134669;27;19932;-87
2020/12/29 03:51:36;;;;;;;;;;;4.00;99.90;;;;;;5140238;27;19907;-87
2020/12/29 03:54:08;;;;;;;;;;;4.00;99.90;;;;;;5140609;27;19997;-87
2020/12/29 03:56:34;;;;;;;;;;;3.90;99.90;;;;;;5140116;27;19907;-87
2020/12/29 03:59:05;;;;;;;;;;;3.90;99.90;;;;;;5139606;27;20047;-86
2020/12/29 04:01:43;;;;;;;;;;;3.90;99.90;;;;;;5139597;27;19995;-87
2020/12/29 04:04:15;;;;;;;;;;;3.90;99.90;;;;;;5139686;27;20290;-88
2020/12/29 04:06:49;;;;;;;;;;;3.90;99.90;;;;;;5158291;27;19926;-88
2020/12/29 04:09:26;;;;;;;;;;;3.90;99.90;;;;;;5139803;27;19918;-86
2020/12/29 04:12:01;;;;;;;;;;;3.90;99.90;;;;;;5139607;27;19914;-88
2020/12/29 04:14:36;;;;;;;;;;;3.80;99.90;;;;;;5139856;27;19935;-88
2020/12/29 04:17:08;;;;;;;;;;;3.80;99.90;;;;;;5139932;27;19907;-88
2020/12/29 04:19:39;;;;;;;;;;;3.80;99.90;;;;;;5139607;27;19914;-88
2020/12/29 04:22:08;;;;;;;;;;;3.90;99.90;;;;;;5139398;27;19960;-88
2020/12/29 04:24:36;;;;;;;;;;;3.90;99.90;;;;;;5138912;27;19946;-88
2020/12/29 04:27:07;;;;;;;;;;;3.80;99.90;;;;;;5157210;27;19999;-87
2020/12/29 04:29:52;;;;;;;;;;;3.80;99.90;;;;;;5155076;27;20365;-86
2020/12/29 04:32:18;;;;;;;;;;;3.80;99.90;;;;;;5157674;27;19911;-85
2020/12/29 04:34:50;;;;;;;;;;;3.80;99.90;;;;;;5138073;27;19971;-85
2020/12/29 04:37:18;;;;;;;;;;;3.80;99.90;;;;;;5156972;27;19907;-86
2020/12/29 04:39:47;;;;;;;;;;;3.80;99.90;;;;;;5138550;27;19907;-85
2020/12/29 04:42:16;;;;;;;;;;;3.80;99.90;;;;;;5157113;27;19999;-85
2020/12/29 04:44:45;;;;;;;;;;;3.80;99.90;;;;;;5157033;27;19911;-85
2020/12/29 04:47:16;;;;;;;;;;;3.80;99.90;;;;;;5137804;27;19919;-86
2020/12/29 04:49:45;;;;;;;;;;;3.70;99.90;;;;;;5138639;27;19907;-85
2020/12/29 04:52:21;;;;;;;;;;;3.70;99.90;;;;;;5138640;27;19908;-85
2020/12/29 04:54:58;;;;;;;;;;;3.80;99.90;;;;;;5156746;27;20009;-86
2020/12/29 04:57:32;;;;;;;;;;;3.70;99.90;;;;;;5138711;27;20367;-85
2020/12/29 05:00:04;;;;;;;;;;;3.80;99.90;;;;;;5138228;27;20401;-86
2020/12/29 05:02:36;;;;;;;;;;;3.80;99.90;;;;;;5138261;27;19907;-86
2020/12/29 05:05:13;;;;;;;;;;;3.80;99.90;;;;;;5156404;27;19923;-85
2020/12/29 05:07:51;;;;;;;;;;;3.80;99.90;;;;;;5133988;27;19922;-85
2020/12/29 05:10:24;;;;;;;;;;;3.80;99.90;;;;;;5137454;27;19956;-85
2020/12/29 05:12:56;;;;;;;;;;;3.80;99.90;;;;;;5138124;27;19907;-86
2020/12/29 05:15:29;;;;;;;;;;;3.80;99.90;;;;;;5138082;27;19913;-86
2020/12/29 05:18:04;;;;;;;;;;;3.80;99.90;;;;;;5138310;27;19907;-86
2020/12/29 05:20:41;;;;;;;;;;;3.80;99.90;;;;;;5156685;27;19914;-86
2020/12/29 05:23:09;;;;;;;;;;;3.80;99.90;;;;;;5138842;27;19994;-86
2020/12/29 05:25:41;;;;;;;;;;;3.80;99.90;;;;;;5137603;27;19918;-85
2020/12/29 05:28:15;;;;;;;;;;;3.80;99.90;;;;;;5138410;27;20359;-85
2020/12/29 05:30:51;;;;;;;;;;;3.80;99.90;;;;;;5137970;27;19907;-86
2020/12/29 05:33:19;;;;;;;;;;;3.80;99.90;;;;;;5137754;27;19939;-86
2020/12/29 05:35:49;;;;;;;;;;;3.80;99.90;;;;;;5137636;27;20005;-86
2020/12/29 05:38:20;;;;;;;;;;;3.80;99.90;;;;;;5138203;27;20331;-86
2020/12/29 05:40:52;;;;;;;;;;;3.80;99.90;;;;;;5137676;27;20283;-86
2020/12/29 05:43:29;;;;;;;;;;;3.80;99.90;;;;;;5137882;27;19954;-86
2020/12/29 05:45:56;;;;;;;;;;;3.80;99.90;;;;;;5137128;27;19958;-86
2020/12/29 05:48:25;;;;;;;;;;;3.80;99.90;;;;;;5137129;27;19952;-86
2020/12/29 05:50:51;;;;;;;;;;;3.90;99.90;;;;;;5137747;27;19907;-85
2020/12/29 05:53:22;;;;;;;;;;;3.90;99.90;;;;;;5156802;27;19907;-86
2020/12/29 05:56:14;;;;;;;;;;;3.90;99.90;;;;;;5155957;27;19911;-86
2020/12/29 05:58:53;;;;;;;;;;;3.90;99.90;;;;;;5135925;27;19907;-85
2020/12/29 06:01:37;;;;;;;;;;;3.90;99.90;;;;;;5156248;27;20002;-86
2020/12/29 06:04:11;;;;;;;;;;;4.00;99.90;;;;;;5137346;27;19969;-86
2020/12/29 06:06:44;;;;;;;;;;;4.00;99.90;;;;;;5116286;28;19920;-86
2020/12/29 06:09:14;;;;;;;;;;;4.00;99.90;;;;;;5117491;28;19912;-85
2020/12/29 06:11:52;;;;;;;;;;;3.90;99.90;;;;;;5116982;28;19914;-86
2020/12/29 06:14:22;;;;;;;;;;;4.00;99.90;;;;;;5117071;28;20041;-86
2020/12/29 06:16:56;;;;;;;;;;;4.00;99.90;;;;;;5116835;28;19939;-86
2020/12/29 06:19:34;;;;;;;;;;;4.00;99.90;;;;;;5116923;28;19915;-85
2020/12/29 06:22:19;;;;;;;;;;;4.00;99.90;;;;;;5116720;28;19908;-85
2020/12/29 06:24:50;;;;;;;;;;;4.00;99.90;;;;;;5117276;28;20249;-85
2020/12/29 06:27:24;;;;;;;;;;;4.00;99.90;;;;;;5116551;28;19930;-85
2020/12/29 06:29:59;;;;;;;;;;;4.00;99.90;;;;;;5116716;28;20344;-85
2020/12/29 06:32:45;;;;;;;;;;;4.00;99.90;;;;;;5135116;28;19907;-85
2020/12/29 06:35:14;;;;;;;;;;;4.00;99.90;;;;;;5116398;28;19907;-85
2020/12/29 06:37:49;;;;;;;;;;;4.00;99.90;;;;;;5116387;28;19915;-85
2020/12/29 06:40:19;;;;;;;;;;;4.00;99.90;;;;;;5116387;28;19914;-85
2020/12/29 06:43:00;;;;;;;;;;;4.10;99.90;;;;;;5116618;28;19951;-85
2020/12/29 06:45:39;;;;;;;;;;;4.00;99.90;;;;;;5116440;28;19922;-85
2020/12/29 06:48:24;;;;;;;;;;;4.00;99.90;;;;;;5116289;28;19941;-85
2020/12/29 06:50:55;;;;;;;;;;;4.00;99.90;;;;;;5116321;28;19908;-84
2020/12/29 06:53:24;;;;;;;;;;;4.00;99.90;;;;;;5116159;28;19907;-86
2020/12/29 06:55:58;;;;;;;;;;;4.00;99.90;;;;;;5112410;28;19913;-86
2020/12/29 06:58:38;;;;;;;;;;;4.10;99.90;;;;;;5134449;28;19908;-86
2020/12/29 07:01:22;;;;;;;;;;;4.10;99.90;;;;;;5116051;28;19912;-86
2020/12/29 07:04:11;;;;;;;;;;;4.10;99.90;;;;;;5115966;28;19919;-86
2020/12/29 07:06:41;;;;;;;;;;;4.10;99.90;;;;;;5152278;27;19972;-86
2020/12/29 07:09:13;;;;;;;;;;;4.10;99.90;;;;;;5137615;27;19911;-86
2020/12/29 07:12:00;;;;;;;;;;;4.10;99.90;;;;;;5157451;27;19940;-86
2020/12/29 07:14:35;;;;;;;;;;;4.00;99.90;;;;;;5140232;27;19953;-85
2020/12/29 07:17:05;;;;;;;;;;;4.00;99.90;;;;;;5158894;27;19915;-87
2020/12/29 07:19:47;;;;;;;;;;;4.00;99.90;;;;;;5139808;27;19956;-86
2020/12/29 07:22:19;;;;;;;;;;;4.00;99.90;;;;;;5140425;27;19911;-86
2020/12/29 07:24:50;;;;;;;;;;;4.00;99.90;;;;;;5158710;27;19907;-86
2020/12/29 07:27:33;;;;;;;;;;;4.00;99.90;;;;;;5140247;27;20001;-86
2020/12/29 07:30:28;;;;;;;;;;;4.00;99.90;;;;;;5122142;27;19914;-87
2020/12/29 07:33:04;;;;;;;;;;;3.90;99.90;;;;;;5139329;27;19907;-87
2020/12/29 07:35:37;;;;;;;;;;;3.90;99.90;;;;;;5159384;27;20347;-86
2020/12/29 07:38:18;;;;;;;;;;;3.80;99.90;;;;;;5140678;27;19907;-86
2020/12/29 07:40:49;;;;;;;;;;;3.80;99.90;;;;;;5158559;27;20367;-87
2020/12/29 07:43:23;;;;;;;;;;;3.80;99.90;;;;;;5153091;27;19911;-87
2020/12/29 07:45:56;;;;;;;;;;;3.80;99.90;;;;;;5139971;27;19919;-86
2020/12/29 07:48:28;;;;;;;;;;;3.70;99.90;;;;;;5140302;27;19907;-86
2020/12/29 07:51:06;;;;;;;;;;;3.80;99.90;;;;;;5139947;27;19907;-86
2020/12/29 07:53:35;;;;;;;;;;;3.70;99.90;;;;;;5139790;27;20313;-87
2020/12/29 07:56:08;;;;;;;;;;;3.70;99.90;;;;;;5136770;27;20359;-86
2020/12/29 07:58:37;;;;;;;;;;;3.70;99.90;;;;;;5157999;27;20348;-86
2020/12/29 08:01:08;;;;;;;;;;;3.70;99.90;;;;;;5158120;27;19907;-86
2020/12/29 08:03:37;;;;;;;;;;;3.70;99.90;;;;;;5134035;27;19911;-86
2020/12/29 08:06:23;;;;;;;;;;;3.70;99.90;;;;;;5139307;27;19919;-86
2020/12/29 08:09:06;;;;;;;;;;;3.70;99.90;;;;;;5139097;27;19911;-86
2020/12/29 08:11:36;;;;;;;;;;;3.70;99.90;;;;;;5157764;27;20020;-86
2020/12/29 08:14:05;;;;;;;;;;;3.70;99.90;;;;;;5138825;27;19918;-86
2020/12/29 08:16:43;;;;;;;;;;;3.70;99.90;;;;;;5157434;27;19907;-86
2020/12/29 08:19:14;;;;;;;;;;;3.70;99.90;;;;;;5139601;27;20343;-86
2020/12/29 08:21:43;;;;;;;;;;;3.70;99.90;;;;;;5138343;27;19914;-86
2020/12/29 08:24:13;;;;;;;;;;;3.60;99.90;;;;;;5138302;27;20425;-87
2020/12/29 08:26:53;;;;;;;;;;;3.60;99.90;;;;;;5138733;27;19922;-87
2020/12/29 08:29:31;;;;;;;;;;;3.60;99.90;;;;;;5157291;27;20305;-86
2020/12/29 08:32:12;;;;;;;;;;;3.60;99.90;;;;;;5138995;27;19932;-86
2020/12/29 08:34:45;;;;;;;;;;;3.60;99.90;;;;;;5156989;27;20324;-86
2020/12/29 08:37:24;;;;;;;;;;;3.60;99.90;;;;;;5135378;27;19974;-87
2020/12/29 08:40:03;;;;;;;;;;;3.60;99.90;;;;;;5138805;27;20270;-87
2020/12/29 08:42:31;;;;;;;;;;;3.50;99.90;;;;;;5157031;27;20355;-86
2020/12/29 08:45:15;;;;;;;;;;;3.50;99.90;;;;;;5138151;27;19907;-86
2020/12/29 08:50:37;;;;;;;;;;;3.40;99.90;;;;;;5143725;27;19914;-86
2020/12/29 08:53:07;;;;;;;;;;;3.30;99.90;;;;;;5121332;27;19916;-86
2020/12/29 08:55:34;;;;;;;;;;;3.30;99.90;;;;;;5121305;27;19907;-86
2020/12/29 08:58:00;;;;;;;;;;;3.30;99.90;;;;;;5116593;27;19907;-86
2020/12/29 09:00:27;;;;;;;;;;;3.30;99.90;;;;;;5117741;27;20319;-86
2020/12/29 09:02:52;;;;;;;;;;;3.40;99.90;;;;;;5113821;27;19934;-86
2020/12/29 09:05:33;;;;;;;;;;;3.40;99.90;;;;;;5120848;27;21752;-86
2020/12/29 09:07:59;;;;;;;;;;;3.40;99.90;;;;;;5137889;27;19922;-86
2020/12/29 09:10:28;;;;;;;;;;;3.40;99.90;;;;;;5124431;27;19907;-86
2020/12/29 09:12:56;;;;;;;;;;;3.40;99.90;;;;;;5135363;27;20346;-86
2020/12/29 09:15:24;;;;;;;;;;;3.40;99.90;;;;;;5129456;27;20356;-86
2020/12/29 09:18:01;;;;;;;;;;;3.40;99.90;;;;;;5129369;27;19922;-86
2020/12/29 09:20:34;;;;;;;;;;;3.40;99.90;;;;;;5116545;27;19958;-86
2020/12/29 09:23:12;;;;;;;;;;;3.50;99.90;;;;;;5117448;27;20363;-86
2020/12/29 09:25:42;;;;;;;;;;;3.40;99.90;;;;;;5124595;27;19958;-86
2020/12/29 09:28:11;;;;;;;;;;;3.50;99.90;;;;;;5128764;27;19919;-86
2020/12/29 09:30:42;;;;;;;;;;;3.50;99.90;;;;;;5126384;27;20300;-87
2020/12/29 09:33:16;;;;;;;;;;;3.50;99.90;;;;;;5123748;27;19911;-86
2020/12/29 09:35:44;;;;;;;;;;;3.50;99.90;;;;;;5123674;27;19911;-86
2020/12/29 09:38:14;;;;;;;;;;;3.50;99.90;;;;;;5128887;27;19907;-86
2020/12/29 09:40:45;;;;;;;;;;;3.50;99.90;;;;;;5139555;27;19932;-86
2020/12/29 09:43:14;;;;;;;;;;;3.50;99.90;;;;;;5128321;27;19907;-86
2020/12/29 09:45:44;;;;;;;;;;;3.50;99.90;;;;;;5148381;27;19937;-86
2020/12/29 09:48:14;;;;;;;;;;;3.50;99.90;;;;;;5134119;27;19908;-86
2020/12/29 09:50:47;;;;;;;;;;;3.50;99.90;;;;;;5116566;27;19907;-85
2020/12/29 09:53:30;;;;;;;;;;;3.50;99.90;;;;;;5140728;27;19908;-86
2020/12/29 09:56:00;;;;;;;;;;;3.50;99.90;;;;;;5137345;27;19914;-86
2020/12/29 09:58:31;;;;;;;;;;;3.50;99.90;;;;;;5138174;27;19907;-86
2020/12/29 10:01:02;;;;;;;;;;;3.50;99.90;;;;;;5137083;27;19913;-85
2020/12/29 10:03:34;;;;;;;;;;;3.60;99.90;;;;;;5132298;27;19967;-87
2020/12/29 10:06:09;;;;;;;;;;;3.60;99.90;;;;;;5109746;27;20454;-90
2020/12/29 10:08:48;;;;;;;;;;;3.60;99.90;;;;;;5117755;27;20005;-87
2020/12/29 10:11:25;;;;;;;;;;;3.60;99.90;;;;;;5125250;27;19911;-87
2020/12/29 10:13:54;;;;;;;;;;;3.60;99.90;;;;;;5109111;28;19947;-87
2020/12/29 10:16:25;;;;;;;;;;;3.70;99.90;;;;;;5115981;28;19965;-87
2020/12/29 10:19:06;;;;;;;;;;;3.70;99.90;;;;;;5116056;28;19912;-87
2020/12/29 10:21:43;;;;;;;;;;;3.70;99.90;;;;;;5118836;27;19963;-87
2020/12/29 10:24:14;;;;;;;;;;;3.70;99.90;;;;;;5149337;27;19911;-86
2020/12/29 10:26:42;;;;;;;;;;;3.80;99.90;;;;;;5123146;27;19915;-87
2020/12/29 10:29:11;;;;;;;;;;;3.80;99.90;;;;;;5125901;27;19915;-87
2020/12/29 10:31:40;;;;;;;;;;;3.90;99.90;;;;;;5137160;27;20266;-86
2020/12/29 10:34:15;;;;;;;;;;;3.80;99.90;;;;;;5129813;27;20333;-87
2020/12/29 10:36:42;;;;;;;;;;;3.80;99.90;;;;;;5154974;27;19907;-87
2020/12/29 10:39:14;;;;;;;;;;;3.80;99.90;;;;;;5142461;27;20002;-87
2020/12/29 10:41:43;;;;;;;;;;;3.80;99.90;;;;;;5115899;28;20005;-87
2020/12/29 10:44:26;;;;;;;;;;;3.80;99.90;;;;;;5136104;27;19972;-86
2020/12/29 10:46:52;;;;;;;;;;;3.80;99.90;;;;;;5138249;27;19951;-87
2020/12/29 10:49:29;;;;;;;;;;;3.80;99.90;;;;;;5124397;27;19950;-87
2020/12/29 10:51:57;;;;;;;;;;;3.80;99.90;;;;;;5133862;27;19918;-88
2020/12/29 10:54:27;;;;;;;;;;;3.80;99.90;;;;;;5119989;27;19912;-88
2020/12/29 10:57:04;;;;;;;;;;;3.80;99.90;;;;;;5138156;27;20351;-88
2020/12/29 10:59:39;;;;;;;;;;;3.80;99.90;;;;;;5134033;27;19907;-86
2020/12/29 11:02:07;;;;;;;;;;;3.90;99.90;;;;;;5117037;27;19911;-87
2020/12/29 11:04:39;;;;;;;;;;;3.90;99.90;;;;;;5119258;27;19971;-87
2020/12/29 11:07:08;;;;;;;;;;;3.90;99.90;;;;;;5125387;27;19923;-87
2020/12/29 11:09:39;;;;;;;;;;;3.90;99.90;;;;;;5120281;27;19907;-87
2020/12/29 11:12:10;;;;;;;;;;;4.00;99.90;;;;;;5125097;27;20274;-87
2020/12/29 11:14:39;;;;;;;;;;;4.00;99.90;;;;;;5134677;27;19999;-87
2020/12/29 11:17:05;;;;;;;;;;;4.00;99.90;;;;;;5139966;27;19976;-87
2020/12/29 11:19:33;;;;;;;;;;;4.00;99.90;;;;;;5143714;27;19916;-87
2020/12/29 11:22:08;;;;;;;;;;;4.10;99.90;;;;;;5132408;27;20018;-87
2020/12/29 11:24:34;;;;;;;;;;;4.10;99.90;;;;;;5138387;27;20360;-88
2020/12/29 11:27:02;;;;;;;;;;;4.10;99.90;;;;;;5114148;27;19930;-86
2020/12/29 11:29:33;;;;;;;;;;;4.10;99.90;;;;;;5119269;27;20245;-87
2020/12/29 11:32:00;;;;;;;;;;;4.10;99.90;;;;;;5118906;27;19952;-86
2020/12/29 11:34:33;;;;;;;;;;;4.10;99.90;;;;;;5114162;27;19908;-86
2020/12/29 11:37:11;;;;;;;;;;;4.20;99.90;;;;;;5137912;27;19952;-87
2020/12/29 11:39:47;;;;;;;;;;;4.20;99.90;;;;;;5119365;27;19914;-87
2020/12/29 11:42:19;;;;;;;;;;;4.20;99.90;;;;;;5130181;27;19914;-87
2020/12/29 11:44:48;;;;;;;;;;;4.30;99.90;;;;;;5139521;27;19947;-86
2020/12/29 11:47:17;;;;;;;;;;;4.30;99.90;;;;;;5136971;27;19926;-86
2020/12/29 11:49:50;;;;;;;;;;;4.30;99.90;;;;;;5136252;27;19915;-87
2020/12/29 11:52:16;;;;;;;;;;;4.30;99.90;;;;;;5132117;27;20427;-87
2020/12/29 11:54:55;;;;;;;;;;;4.40;99.90;;;;;;5113327;28;19907;-87
2020/12/29 11:57:24;;;;;;;;;;;4.40;99.90;;;;;;5118813;27;19952;-87
2020/12/29 11:59:55;;;;;;;;;;;4.50;99.90;;;;;;5118617;27;19917;-86
2020/12/29 12:02:32;;;;;;;;;;;4.60;99.90;;;;;;5137310;27;19994;-88
2020/12/29 12:04:57;;;;;;;;;;;4.60;99.90;;;;;;5118570;27;20353;-87
2020/12/29 12:07:28;;;;;;;;;;;4.50;99.90;;;;;;5119212;27;19919;-88
2020/12/29 12:09:57;;;;;;;;;;;4.50;99.90;;;;;;5133517;27;19911;-87
2020/12/29 12:12:26;;;;;;;;;;;4.50;99.90;;;;;;5114208;27;19907;-87
2020/12/29 12:14:53;;;;;;;;;;;4.50;99.90;;;;;;5114475;27;19907;-87
2020/12/29 12:17:21;;;;;;;;;;;4.60;99.90;;;;;;5119000;27;19908;-88
2020/12/29 12:19:50;;;;;;;;;;;4.60;99.90;;;;;;5114857;27;19908;-87
2020/12/29 12:22:21;;;;;;;;;;;4.50;99.90;;;;;;5113714;27;19907;-88
2020/12/29 12:24:58;;;;;;;;;;;4.60;99.90;;;;;;5118878;27;19954;-87
2020/12/29 12:27:24;;;;;;;;;;;4.60;99.90;;;;;;5036930;28;19917;-87
2020/12/29 12:29:54;;;;;;;;;;;4.60;99.90;;;;;;5049191;28;19909;-87
2020/12/29 12:32:26;;;;;;;;;;;4.60;99.90;;;;;;5053746;28;20389;-88
2020/12/29 12:35:03;;;;;;;;;;;4.70;99.90;;;;;;5049769;28;20437;-87
2020/12/29 12:37:36;;;;;;;;;;;4.70;99.90;;;;;;5053527;28;19909;-87
2020/12/29 12:40:02;;;;;;;;;;;4.80;99.90;;;;;;5036215;28;19909;-87
2020/12/29 12:42:32;;;;;;;;;;;4.90;99.90;;;;;;5053469;28;20503;-87
2020/12/29 12:45:15;;;;;;;;;;;4.90;99.90;;;;;;5046686;28;20003;-88
2020/12/29 12:47:41;;;;;;;;;;;4.90;99.90;;;;;;5051705;28;20313;-87
2020/12/29 12:50:19;;;;;;;;;;;5.00;99.90;;;;;;5052475;28;19909;-86
2020/12/29 12:52:54;;;;;;;;;;;4.90;99.90;;;;;;5052738;28;20063;-87
2020/12/29 12:55:33;;;;;;;;;;;4.90;99.90;;;;;;5051995;28;19908;-87
2020/12/29 12:58:01;;;;;;;;;;;4.90;99.90;;;;;;5049024;28;19913;-87
2020/12/29 13:00:32;;;;;;;;;;;4.90;99.90;;;;;;5048568;28;20368;-87
2020/12/29 13:03:13;;;;;;;;;;;4.90;99.90;;;;;;5053643;28;19915;-87
2020/12/29 13:05:44;;;;;;;;;;;4.90;99.90;;;;;;5050031;28;19979;-87
2020/12/29 13:08:09;;;;;;;;;;;4.90;99.90;;;;;;5048867;28;19948;-87
2020/12/29 13:10:38;;;;;;;;;;;4.90;99.90;;;;;;5074578;27;19914;-87
2020/12/29 13:13:07;;;;;;;;;;;5.00;99.90;;;;;;5118078;27;19915;-87
2020/12/29 13:15:40;;;;;;;;;;;5.00;99.90;;;;;;5136110;27;19953;-87
2020/12/29 13:18:10;;;;;;;;;;;5.00;99.90;;;;;;5117632;27;19930;-87
2020/12/29 13:20:39;;;;;;;;;;;5.00;99.90;;;;;;5130970;27;19914;-87
2020/12/29 13:23:10;;;;;;;;;;;5.00;99.90;;;;;;5117361;27;19907;-86
2020/12/29 13:25:38;;;;;;;;;;;5.10;99.90;;;;;;5116882;27;19970;-87
2020/12/29 13:28:04;;;;;;;;;;;5.00;99.90;;;;;;5135651;27;19911;-86
2020/12/29 13:30:36;;;;;;;;;;;5.00;99.90;;;;;;5114202;27;19918;-87
2020/12/29 13:33:07;;;;;;;;;;;5.10;99.90;;;;;;5113063;27;19907;-87
2020/12/29 13:35:50;;;;;;;;;;;5.10;99.90;;;;;;5135871;27;19938;-86
2020/12/29 13:38:17;;;;;;;;;;;5.10;99.90;;;;;;5117252;27;19907;-86
2020/12/29 13:40:47;;;;;;;;;;;5.10;99.90;;;;;;5100229;27;19912;-87
2020/12/29 13:43:13;;;;;;;;;;;5.10;99.90;;;;;;5117230;27;19972;-88
2020/12/29 13:45:45;;;;;;;;;;;5.10;99.90;;;;;;5116800;27;20364;-90
2020/12/29 13:48:26;;;;;;;;;;;5.00;99.90;;;;;;5113641;27;20348;-87
2020/12/29 13:51:01;;;;;;;;;;;5.00;99.90;;;;;;5135753;27;19907;-88
2020/12/29 13:53:27;;;;;;;;;;;5.00;99.90;;;;;;5112981;27;19908;-86
2020/12/29 13:55:53;;;;;;;;;;;5.00;99.90;;;;;;5117095;27;20316;-89
2020/12/29 13:58:22;;;;;;;;;;;5.00;99.90;;;;;;5116679;27;20419;-88
2020/12/29 14:00:54;;;;;;;;;;;5.00;99.90;;;;;;5132198;27;20317;-86
2020/12/29 14:03:26;;;;;;;;;;;5.00;99.90;;;;;;5135441;27;19911;-88
2020/12/29 14:05:54;;;;;;;;;;;5.00;99.90;;;;;;5113220;28;20343;-88
2020/12/29 14:08:25;;;;;;;;;;;5.00;99.90;;;;;;5114835;28;19912;-86
2020/12/29 14:10:57;;;;;;;;;;;5.00;99.90;;;;;;5114111;28;20002;-86
2020/12/29 14:13:27;;;;;;;;;;;5.10;99.90;;;;;;5113492;28;19940;-87
2020/12/29 14:16:01;;;;;;;;;;;5.10;99.90;;;;;;5114027;28;19912;-89
2020/12/29 14:18:30;;;;;;;;;;;5.00;99.90;;;;;;5114327;28;19908;-87
2020/12/29 14:21:21;;;;;;;;;;;5.00;99.90;;;;;;5117892;28;19918;-87
2020/12/29 14:24:01;;;;;;;;;;;5.00;99.90;;;;;;5117614;28;19954;-88
2020/12/29 14:26:29;;;;;;;;;;;5.00;99.90;;;;;;5111018;28;19987;-86
2020/12/29 14:29:13;;;;;;;;;;;4.90;99.90;;;;;;5118065;28;19994;-85
2020/12/29 14:32:02;;;;;;;;;;;4.90;99.90;;;;;;5116746;28;19915;-86
2020/12/29 14:34:39;;;;;;;;;;;4.80;99.90;;;;;;5117721;28;19908;-86
2020/12/29 14:37:08;;;;;;;;;;;4.80;99.90;;;;;;5116942;28;19908;-86
2020/12/29 14:39:36;;;;;;;;;;;4.80;99.90;;;;;;5113382;28;20014;-87
2020/12/29 14:42:09;;;;;;;;;;;4.80;99.90;;;;;;5112868;28;20409;-86
2020/12/29 14:44:38;;;;;;;;;;;4.80;99.90;;;;;;5118336;28;20383;-86
2020/12/29 14:47:06;;;;;;;;;;;4.80;99.90;;;;;;5114179;28;19920;-86
2020/12/29 14:49:49;;;;;;;;;;;4.80;99.90;;;;;;5116125;28;19965;-85
2020/12/29 14:52:22;;;;;;;;;;;4.80;99.90;;;;;;5115934;28;19911;-85
2020/12/29 14:55:07;;;;;;;;;;;4.90;99.90;;;;;;5117280;28;20395;-86
2020/12/29 14:57:43;;;;;;;;;;;4.80;99.90;;;;;;5114505;28;19908;-87
2020/12/29 15:00:11;;;;;;;;;;;4.80;99.90;;;;;;5116772;28;19951;-86
2020/12/29 15:02:42;;;;;;;;;;;4.80;99.90;;;;;;5110830;28;20002;-88
2020/12/29 15:05:12;;;;;;;;;;;4.80;99.90;;;;;;5116302;28;20276;-87
2020/12/29 15:07:46;;;;;;;;;;;4.80;99.90;;;;;;5018700;28;19917;-86